Time;durP1;ratioP1;P1;durP2;ratioP2;P2;SDS_P1;SDS_P2;PMS_P1;PMS_P2;Temp;Humidity;BMP_temperature;BMP_pressure;BME280_temperature;BME280_humidity;BME280_pressure;Samples;Min_cycle;Max_cycle;Signal;HPM_P1;HPM_P2
2023/09/19 00:01:20;;;;;;;7.28;2.15;;;18.60;99.90;;;;;;5014233;28;20049;-76
2023/09/19 00:03:46;;;;;;;7.53;1.98;;;18.80;99.90;;;;;;5028877;28;20049;-76
2023/09/19 00:06:15;;;;;;;10.60;2.40;;;18.50;99.90;;;;;;5014305;28;20171;-77
2023/09/19 00:08:44;;;;;;;11.50;2.40;;;18.40;99.90;;;;;;5013901;28;20041;-76
2023/09/19 00:11:10;;;;;;;14.40;2.22;;;18.60;99.90;;;;;;5014209;28;20409;-76
2023/09/19 00:13:36;;;;;;;9.73;2.40;;;18.50;99.90;;;;;;5030499;28;20049;-76
2023/09/19 00:16:10;;;;;;;12.00;2.15;;;18.70;99.90;;;;;;5030463;28;20029;-76
2023/09/19 00:18:36;;;;;;;9.95;3.30;;;18.70;99.90;;;;;;5014449;28;20421;-76
2023/09/19 00:21:04;;;;;;;8.43;2.05;;;18.80;99.90;;;;;;5014131;28;20095;-76
2023/09/19 00:23:31;;;;;;;12.25;2.45;;;18.70;99.90;;;;;;4997954;28;20041;-76
2023/09/19 00:26:00;;;;;;;9.20;1.90;;;18.60;99.90;;;;;;5014345;28;20484;-76
2023/09/19 00:28:27;;;;;;;4.78;1.70;;;18.60;99.90;;;;;;4997301;28;20041;-76
2023/09/19 00:30:55;;;;;;;10.05;2.50;;;18.60;99.90;;;;;;5013785;28;20389;-76
2023/09/19 00:33:22;;;;;;;14.43;2.38;;;18.60;99.90;;;;;;5030323;28;20509;-76
2023/09/19 00:35:48;;;;;;;7.68;1.90;;;18.50;99.90;;;;;;5013846;28;20034;-76
2023/09/19 00:38:18;;;;;;;10.90;1.95;;;18.50;99.90;;;;;;4997526;28;20041;-76
2023/09/19 00:40:45;;;;;;;10.32;2.08;;;18.50;99.90;;;;;;5013672;28;20120;-76
2023/09/19 00:43:11;;;;;;;8.13;1.70;;;18.30;99.90;;;;;;5014230;28;20037;-76
2023/09/19 00:45:42;;;;;;;7.35;2.05;;;18.40;99.90;;;;;;5013711;28;20037;-75
2023/09/19 00:48:09;;;;;;;7.38;1.90;;;18.50;99.90;;;;;;5013595;28;20041;-76
2023/09/19 00:50:35;;;;;;;8.60;2.10;;;18.30;99.90;;;;;;5013907;28;20091;-76
2023/09/19 00:53:07;;;;;;;6.93;1.90;;;18.30;99.90;;;;;;5014120;28;20095;-75
2023/09/19 00:55:34;;;;;;;15.57;2.70;;;18.40;99.90;;;;;;5033664;28;20412;-75
2023/09/19 00:58:00;;;;;;;7.32;2.00;;;18.30;99.90;;;;;;5017884;28;20516;-76
2023/09/19 01:00:27;;;;;;;8.98;2.47;;;18.30;99.90;;;;;;5001685;28;20064;-77
2023/09/19 01:02:52;;;;;;;8.68;2.20;;;18.20;99.90;;;;;;5000748;28;20037;-76
2023/09/19 01:05:18;;;;;;;5.82;1.88;;;18.40;99.90;;;;;;5016986;28;20043;-76
2023/09/19 01:07:44;;;;;;;7.97;2.20;;;18.30;99.90;;;;;;5000417;28;20041;-75
2023/09/19 01:10:15;;;;;;;6.78;1.85;;;18.10;99.90;;;;;;5000462;28;20087;-76
2023/09/19 01:13:06;;;;;;;11.02;2.22;;;18.40;99.90;;;;;;5016775;28;20033;-76
2023/09/19 01:15:36;;;;;;;8.45;2.00;;;18.20;99.90;;;;;;5017337;28;20041;-75
2023/09/19 01:18:26;;;;;;;5.38;1.50;;;18.10;99.90;;;;;;5033205;28;20045;-76
2023/09/19 01:21:29;;;;;;;5.78;1.90;;;18.20;99.90;;;;;;5017038;28;20038;-76
2023/09/19 01:24:26;;;;;;;11.63;2.00;;;18.00;99.90;;;;;;5011129;28;20183;-76
2023/09/19 01:27:02;;;;;;;7.82;2.33;;;18.10;99.90;;;;;;5017303;28;20084;-76
2023/09/19 01:29:46;;;;;;;4.93;1.58;;;17.90;99.90;;;;;;5033489;28;20073;-76
2023/09/19 01:32:16;;;;;;;7.45;2.03;;;18.00;99.90;;;;;;5017018;28;20567;-76
2023/09/19 01:34:58;;;;;;;6.78;1.90;;;18.10;99.90;;;;;;5017062;28;20037;-76
2023/09/19 01:37:25;;;;;;;15.40;2.58;;;;;;;;;;5016821;28;20492;-75
2023/09/19 01:40:16;;;;;;;9.15;2.10;;;18.00;99.90;;;;;;5017426;28;20404;-76
2023/09/19 01:42:59;;;;;;;9.30;2.30;;;18.10;99.90;;;;;;5017184;28;20043;-76
2023/09/19 01:45:46;;;;;;;5.78;1.80;;;18.10;99.90;;;;;;5000547;28;20478;-75
2023/09/19 01:48:21;;;;;;;12.85;2.60;;;18.00;99.90;;;;;;5033016;28;20055;-76
2023/09/19 01:50:59;;;;;;;8.85;2.28;;;18.00;99.90;;;;;;5033105;28;20088;-76
2023/09/19 01:53:30;;;;;;;8.15;2.33;;;17.90;99.90;;;;;;5016995;28;20045;-77
2023/09/19 01:55:57;;;;;;;5.40;1.98;;;18.00;99.90;;;;;;5033104;28;20512;-76
2023/09/19 01:58:48;;;;;;;10.38;3.10;;;18.00;99.90;;;;;;5016292;28;20041;-76
2023/09/19 02:01:18;;;;;;;9.70;1.85;;;18.00;99.90;;;;;;5016790;28;20408;-76
2023/09/19 02:03:47;;;;;;;8.13;1.77;;;17.90;99.90;;;;;;5015170;28;20033;-76
2023/09/19 02:06:17;;;;;;;10.63;2.83;;;18.10;99.90;;;;;;5015985;28;20420;-76
2023/09/19 02:08:44;;;;;;;6.35;2.10;;;18.00;99.90;;;;;;5015879;28;20048;-76
2023/09/19 02:11:11;;;;;;;8.65;2.03;;;17.80;99.90;;;;;;5016399;28;20133;-76
2023/09/19 02:13:37;;;;;;;7.05;1.90;;;;;;;;;;5016381;28;20041;-76
2023/09/19 02:16:04;;;;;;;9.32;1.95;;;;;;;;;;5000057;28;20038;-76
2023/09/19 02:18:30;;;;;;;7.90;1.77;;;17.90;99.90;;;;;;5015965;28;20041;-76
2023/09/19 02:20:58;;;;;;;9.35;1.58;;;18.00;99.90;;;;;;5016170;28;20050;-76
2023/09/19 02:23:24;;;;;;;11.40;2.40;;;18.00;99.90;;;;;;5016137;28;20045;-76
2023/09/19 02:26:03;;;;;;;7.28;1.70;;;17.90;99.90;;;;;;5015290;28;20041;-76
2023/09/19 02:28:32;;;;;;;6.50;1.63;;;18.00;99.90;;;;;;5015417;28;20055;-76
2023/09/19 02:31:01;;;;;;;10.35;2.33;;;17.90;99.90;;;;;;5015829;28;20493;-76
2023/09/19 02:33:28;;;;;;;12.73;1.95;;;17.90;99.90;;;;;;5016038;28;20127;-76
2023/09/19 02:36:00;;;;;;;9.45;1.73;;;18.10;99.90;;;;;;5015584;28;20045;-76
2023/09/19 02:38:26;;;;;;;4.85;1.65;;;;;;;;;;5015948;28;20063;-75
2023/09/19 02:40:55;;;;;;;7.53;1.52;;;18.00;99.90;;;;;;5015666;28;20409;-75
2023/09/19 02:43:21;;;;;;;7.07;1.60;;;18.10;99.90;;;;;;5015890;28;20042;-76
2023/09/19 02:45:53;;;;;;;6.38;1.77;;;18.10;99.90;;;;;;5016002;28;20045;-76
2023/09/19 02:48:19;;;;;;;11.13;3.42;;;18.00;99.90;;;;;;5015304;28;20040;-76
2023/09/19 02:50:45;;;;;;;9.30;2.30;;;;;;;;;;5015503;28;20382;-75
2023/09/19 02:53:12;;;;;;;7.45;1.75;;;;;;;;;;4999267;28;20072;-75
2023/09/19 02:55:40;;;;;;;6.90;2.00;;;17.90;99.90;;;;;;5015286;28;20042;-76
2023/09/19 02:58:11;;;;;;;11.50;1.92;;;18.00;99.90;;;;;;5015242;28;20045;-76
2023/09/19 03:00:37;;;;;;;9.95;2.10;;;17.90;99.90;;;;;;5015626;28;20199;-76
2023/09/19 03:03:04;;;;;;;4.88;1.60;;;;;;;;;;5015631;28;20037;-75
2023/09/19 03:05:30;;;;;;;8.90;2.35;;;17.90;99.90;;;;;;4999012;28;20045;-76
2023/09/19 03:08:00;;;;;;;11.73;1.90;;;17.90;99.90;;;;;;5014843;28;20037;-76
2023/09/19 03:10:26;;;;;;;8.88;2.13;;;17.80;99.90;;;;;;4998435;28;20041;-75
2023/09/19 03:12:51;;;;;;;8.82;2.10;;;;;;;;;;5014811;28;20029;-76
2023/09/19 03:15:18;;;;;;;4.60;1.90;;;17.90;99.90;;;;;;4998072;28;20037;-76
2023/09/19 03:17:47;;;;;;;10.65;2.55;;;18.00;99.90;;;;;;5013808;28;20540;-75
2023/09/19 03:20:17;;;;;;;5.30;1.65;;;18.00;99.90;;;;;;4998514;28;20132;-76
2023/09/19 03:22:46;;;;;;;10.57;2.30;;;17.90;99.90;;;;;;4998918;28;20461;-76
2023/09/19 03:25:12;;;;;;;8.80;1.77;;;18.00;99.90;;;;;;5014850;28;20060;-76
2023/09/19 03:27:38;;;;;;;7.85;1.83;;;18.00;99.90;;;;;;5014946;28;20628;-76
2023/09/19 03:30:08;;;;;;;6.20;1.92;;;18.10;99.90;;;;;;4997791;28;20543;-76
2023/09/19 03:32:35;;;;;;;15.48;3.22;;;17.90;99.90;;;;;;5014813;28;20052;-76
2023/09/19 03:35:01;;;;;;;6.82;1.42;;;18.00;99.90;;;;;;5014675;28;20042;-75
2023/09/19 03:37:26;;;;;;;9.05;2.10;;;17.90;99.90;;;;;;5014456;28;20504;-76
2023/09/19 03:39:52;;;;;;;5.13;1.77;;;17.90;99.90;;;;;;5014519;28;20217;-76
2023/09/19 03:42:17;;;;;;;9.32;2.45;;;18.00;99.90;;;;;;5014779;28;20524;-76
2023/09/19 03:44:43;;;;;;;7.78;1.80;;;;;;;;;;5014954;28;20041;-76
2023/09/19 03:47:09;;;;;;;14.52;1.90;;;;;;;;;;4998226;28;20128;-75
2023/09/19 03:49:36;;;;;;;7.32;2.97;;;;;;;;;;4997629;28;20045;-75
2023/09/19 03:52:02;;;;;;;11.27;1.80;;;17.90;99.90;;;;;;5014679;28;20049;-76
2023/09/19 03:54:28;;;;;;;10.20;2.15;;;18.00;99.90;;;;;;5014658;28;20125;-76
2023/09/19 03:56:54;;;;;;;9.15;2.35;;;;;;;;;;4997975;28;20077;-76
2023/09/19 03:59:20;;;;;;;6.93;1.42;;;;;;;;;;5013981;28;20092;-75
2023/09/19 04:01:46;;;;;;;9.48;1.52;;;;;;;;;;5014484;28;20045;-77
2023/09/19 04:04:14;;;;;;;6.10;1.67;;;;;;;;;;5014432;28;20155;-76
2023/09/19 04:06:39;;;;;;;12.40;2.15;;;18.00;99.90;;;;;;5014224;28;20420;-76
2023/09/19 04:09:07;;;;;;;10.50;2.00;;;;;;;;;;4997665;28;20050;-76
2023/09/19 04:11:33;;;;;;;6.68;1.73;;;18.00;99.90;;;;;;5013984;28;20045;-76
2023/09/19 04:13:59;;;;;;;15.95;2.08;;;17.90;99.90;;;;;;4997787;28;20033;-76
2023/09/19 04:16:25;;;;;;;6.95;2.05;;;;;;;;;;5014288;28;20459;-76
2023/09/19 04:18:51;;;;;;;12.40;3.58;;;;;;;;;;5013866;28;20038;-76
2023/09/19 04:21:17;;;;;;;7.45;2.15;;;;;;;;;;5013676;28;20072;-76
2023/09/19 04:23:42;;;;;;;9.43;1.70;;;18.10;99.90;;;;;;4997598;28;20128;-76
2023/09/19 04:26:08;;;;;;;7.72;1.60;;;18.00;99.90;;;;;;5013498;28;20127;-77
2023/09/19 04:28:34;;;;;;;5.20;1.58;;;18.00;99.90;;;;;;5013515;28;20037;-76
2023/09/19 04:31:00;;;;;;;8.45;1.67;;;18.20;99.90;;;;;;5013585;28;20029;-76
2023/09/19 04:33:30;;;;;;;9.88;2.03;;;18.20;99.90;;;;;;4997683;28;20091;-76
2023/09/19 04:35:56;;;;;;;6.85;1.65;;;18.10;99.90;;;;;;5014063;28;20045;-76
2023/09/19 04:38:22;;;;;;;8.07;1.88;;;;;;;;;;5013267;28;20044;-77
2023/09/19 04:40:48;;;;;;;7.20;2.00;;;18.20;99.90;;;;;;5013561;28;20076;-76
2023/09/19 04:43:15;;;;;;;6.68;1.80;;;18.20;99.90;;;;;;4997381;28;20075;-76
2023/09/19 04:45:41;;;;;;;7.10;1.98;;;18.00;99.90;;;;;;5013255;28;20046;-76
2023/09/19 04:48:08;;;;;;;8.18;1.83;;;18.20;99.90;;;;;;5012449;28;20040;-76
2023/09/19 04:50:34;;;;;;;10.88;1.48;;;18.00;99.90;;;;;;5013212;28;20045;-76
2023/09/19 04:53:00;;;;;;;7.30;2.03;;;18.10;99.90;;;;;;4997188;28;20045;-76
2023/09/19 04:55:27;;;;;;;10.65;2.17;;;18.10;99.90;;;;;;5013714;28;20047;-76
2023/09/19 04:57:53;;;;;;;8.90;2.05;;;19.00;99.90;;;;;;5013542;28;20037;-75
2023/09/19 05:00:24;;;;;;;10.05;1.95;;;18.10;99.90;;;;;;5013337;28;20049;-76
2023/09/19 05:02:56;;;;;;;10.07;1.90;;;18.20;99.90;;;;;;5013392;28;20501;-76
2023/09/19 05:05:23;;;;;;;12.73;2.65;;;18.20;99.90;;;;;;5013381;28;20044;-76
2023/09/19 05:07:50;;;;;;;8.00;2.55;;;18.20;99.90;;;;;;5013363;28;20139;-76
2023/09/19 05:10:18;;;;;;;9.85;2.35;;;18.20;99.90;;;;;;4996937;28;20060;-76
2023/09/19 05:12:46;;;;;;;16.40;2.95;;;18.30;99.90;;;;;;5013440;28;20053;-76
2023/09/19 05:15:14;;;;;;;15.90;2.58;;;18.40;99.90;;;;;;5014167;28;20463;-76
2023/09/19 05:17:40;;;;;;;8.45;2.55;;;18.30;99.90;;;;;;5013429;28;20346;-76
2023/09/19 05:20:12;;;;;;;15.38;2.20;;;18.20;99.90;;;;;;5013092;28;20045;-76
2023/09/19 05:22:40;;;;;;;7.85;2.63;;;;;;;;;;4997119;28;20045;-75
2023/09/19 05:25:06;;;;;;;10.07;2.03;;;18.30;99.90;;;;;;4997163;28;20044;-76
2023/09/19 05:27:33;;;;;;;8.77;1.85;;;;;;;;;;5012683;28;20037;-76
2023/09/19 05:29:59;;;;;;;9.77;2.65;;;18.30;99.90;;;;;;5011046;28;20591;-76
2023/09/19 05:32:25;;;;;;;8.45;2.60;;;18.40;99.90;;;;;;5011882;28;20073;-76
2023/09/19 05:34:53;;;;;;;6.25;2.13;;;18.40;99.90;;;;;;5013298;28;20124;-76
2023/09/19 05:37:19;;;;;;;6.63;1.90;;;18.40;99.90;;;;;;4997001;28;20048;-76
2023/09/19 05:39:45;;;;;;;10.10;2.78;;;;;;;;;;5013099;28;20500;-76
2023/09/19 05:42:10;;;;;;;11.65;2.45;;;18.40;99.90;;;;;;5016938;28;20049;-76
2023/09/19 05:44:36;;;;;;;6.07;1.98;;;18.40;99.90;;;;;;5016998;28;20474;-76
2023/09/19 05:47:05;;;;;;;9.48;2.35;;;18.30;99.90;;;;;;5016745;28;20041;-76
2023/09/19 05:49:30;;;;;;;9.18;1.92;;;18.50;99.90;;;;;;5016315;28;20548;-76
2023/09/19 05:51:58;;;;;;;8.02;2.53;;;18.40;99.90;;;;;;5016830;28;20042;-76
2023/09/19 05:54:24;;;;;;;11.45;2.47;;;18.40;99.90;;;;;;5016793;28;20045;-76
2023/09/19 05:56:52;;;;;;;8.85;1.67;;;18.50;99.90;;;;;;5016381;28;20459;-76
2023/09/19 05:59:19;;;;;;;10.07;1.77;;;18.60;99.90;;;;;;5016439;28;20052;-75
2023/09/19 06:01:46;;;;;;;9.98;1.85;;;18.50;99.90;;;;;;5016610;28;20041;-76
2023/09/19 06:04:12;;;;;;;9.65;2.35;;;;;;;;;;5024681;28;20073;-75
2023/09/19 06:06:39;;;;;;;14.05;2.75;;;;;;;;;;5006185;28;20182;-76
2023/09/19 06:09:08;;;;;;;9.88;2.08;;;18.60;99.90;;;;;;5004392;28;20042;-75
2023/09/19 06:11:34;;;;;;;8.38;1.92;;;;;;;;;;5021989;28;20044;-74
2023/09/19 06:14:02;;;;;;;9.50;2.28;;;18.70;99.90;;;;;;4998249;28;20496;-76
2023/09/19 06:16:29;;;;;;;6.18;1.42;;;18.50;99.90;;;;;;5006871;28;20528;-75
2023/09/19 06:18:55;;;;;;;11.70;2.42;;;18.60;99.90;;;;;;4998404;28;20065;-75
2023/09/19 06:21:22;;;;;;;7.82;1.77;;;18.60;99.90;;;;;;5001144;28;20097;-75
2023/09/19 06:23:48;;;;;;;9.38;2.00;;;;;;;;;;5001508;28;20143;-74
2023/09/19 06:26:13;;;;;;;11.45;2.13;;;18.80;99.90;;;;;;4993222;28;20050;-75
2023/09/19 06:28:40;;;;;;;17.05;2.10;;;18.60;99.90;;;;;;5012191;28;20390;-75
2023/09/19 06:31:09;;;;;;;7.65;1.90;;;;;;;;;;5008553;28;20041;-75
2023/09/19 06:33:39;;;;;;;9.60;2.13;;;18.80;99.90;;;;;;5012703;28;20665;-75
2023/09/19 06:36:05;;;;;;;10.55;2.08;;;18.70;99.90;;;;;;5012423;28;20040;-75
2023/09/19 06:38:34;;;;;;;8.90;1.80;;;;;;;;;;5011032;28;20120;-75
2023/09/19 06:41:01;;;;;;;10.95;2.35;;;18.90;99.90;;;;;;4996997;28;20050;-75
2023/09/19 06:43:28;;;;;;;10.30;2.15;;;19.00;99.90;;;;;;5011692;28;20037;-75
2023/09/19 06:45:54;;;;;;;10.75;2.28;;;19.20;99.90;;;;;;5010927;28;20053;-75
2023/09/19 06:48:21;;;;;;;5.85;2.03;;;;;;;;;;5010632;28;20037;-74
2023/09/19 06:50:50;;;;;;;9.75;2.00;;;;;;;;;;5003232;28;20044;-76
2023/09/19 06:53:17;;;;;;;9.75;1.98;;;19.20;99.90;;;;;;5003414;28;20509;-76
2023/09/19 06:55:43;;;;;;;10.18;2.10;;;19.00;99.90;;;;;;5000262;28;20037;-76
2023/09/19 06:58:10;;;;;;;12.98;2.35;;;19.30;99.90;;;;;;5010696;28;20521;-75
2023/09/19 07:00:37;;;;;;;8.32;2.58;;;;;;;;;;5000136;28;20135;-75
2023/09/19 07:03:10;;;;;;;11.65;2.10;;;19.20;99.90;;;;;;5006021;28;20523;-75
2023/09/19 07:05:37;;;;;;;10.75;2.65;;;19.30;99.90;;;;;;4988598;28;20087;-75
2023/09/19 07:08:03;;;;;;;12.98;2.20;;;19.60;99.90;;;;;;5004952;28;20052;-75
2023/09/19 07:10:29;;;;;;;10.32;2.13;;;19.40;99.90;;;;;;5005187;28;20151;-75
2023/09/19 07:12:59;;;;;;;8.27;2.25;;;19.50;99.90;;;;;;5010476;28;20196;-73
2023/09/19 07:15:30;;;;;;;7.70;2.42;;;19.90;99.90;;;;;;4991149;28;20048;-82
2023/09/19 07:17:56;;;;;;;9.60;1.80;;;19.90;99.90;;;;;;4998278;28;20053;-82
2023/09/19 07:20:26;;;;;;;12.70;2.63;;;19.80;99.90;;;;;;5023401;28;20042;-81
2023/09/19 07:22:54;;;;;;;10.52;2.03;;;;;;;;;;5023876;28;20048;-82
2023/09/19 07:25:20;;;;;;;7.97;2.08;;;;;;;;;;4996147;28;20037;-82
2023/09/19 07:27:46;;;;;;;7.00;2.17;;;19.90;99.90;;;;;;5004394;28;20042;-83
2023/09/19 07:30:12;;;;;;;9.13;2.25;;;19.90;99.90;;;;;;5019843;28;20048;-83
2023/09/19 07:32:40;;;;;;;10.15;1.92;;;20.00;99.90;;;;;;5014764;28;20049;-84
2023/09/19 07:35:06;;;;;;;15.05;3.05;;;20.00;99.90;;;;;;5034639;28;20260;-84
2023/09/19 07:37:35;;;;;;;13.05;2.70;;;20.00;99.90;;;;;;5009130;28;20069;-83
2023/09/19 07:40:07;;;;;;;11.05;1.98;;;20.00;99.90;;;;;;5009219;28;20065;-84
2023/09/19 07:42:34;;;;;;;11.60;2.50;;;19.90;99.90;;;;;;5009009;28;20050;-84
2023/09/19 07:45:01;;;;;;;7.78;1.77;;;20.00;99.90;;;;;;5026052;28;20059;-83
2023/09/19 07:47:27;;;;;;;12.50;2.33;;;20.00;99.90;;;;;;5024508;28;20030;-81
2023/09/19 07:49:53;;;;;;;10.73;2.13;;;19.90;99.90;;;;;;5007144;28;20042;-84
2023/09/19 07:52:22;;;;;;;5.55;1.73;;;20.00;99.90;;;;;;5008817;28;20107;-83
2023/09/19 07:54:49;;;;;;;7.20;1.80;;;19.90;99.90;;;;;;5018356;28;20045;-84
2023/09/19 07:57:15;;;;;;;12.63;2.72;;;20.10;99.90;;;;;;5036411;28;20404;-84
2023/09/19 07:59:42;;;;;;;16.17;3.53;;;19.70;99.90;;;;;;5034823;28;20033;-83
2023/09/19 08:02:09;;;;;;;8.60;1.98;;;19.80;99.90;;;;;;5035234;28;20041;-84
2023/09/19 08:04:35;;;;;;;9.93;2.58;;;19.60;99.90;;;;;;5000529;28;20095;-84
2023/09/19 08:07:03;;;;;;;7.93;1.98;;;;;;;;;;5034815;28;20038;-83
2023/09/19 08:09:33;;;;;;;12.15;2.13;;;;;;;;;;5000683;28;20045;-83
2023/09/19 08:12:02;;;;;;;8.52;2.47;;;20.00;99.90;;;;;;5035018;28;20080;-84
2023/09/19 08:14:29;;;;;;;14.10;2.17;;;19.80;99.90;;;;;;5034251;28;20041;-84
2023/09/19 08:17:00;;;;;;;9.45;2.38;;;20.00;99.90;;;;;;5033085;28;20045;-84
2023/09/19 08:19:31;;;;;;;15.63;2.78;;;;;;;;;;5000531;28;20060;-84
2023/09/19 08:22:00;;;;;;;12.43;2.60;;;19.90;99.90;;;;;;5016732;28;20076;-84
2023/09/19 08:24:30;;;;;;;9.02;2.47;;;19.90;99.90;;;;;;5016709;28;20493;-84
2023/09/19 08:26:56;;;;;;;14.15;3.28;;;20.10;99.90;;;;;;5034325;28;20041;-84
2023/09/19 08:29:27;;;;;;;9.93;2.55;;;20.30;99.90;;;;;;5016526;28;20083;-84
2023/09/19 08:31:59;;;;;;;8.60;3.33;;;20.20;99.90;;;;;;5016754;28;20504;-84
2023/09/19 08:34:25;;;;;;;9.00;2.67;;;20.40;99.90;;;;;;5034553;28;20396;-84
2023/09/19 08:36:56;;;;;;;11.05;2.88;;;20.40;99.90;;;;;;5033991;28;20034;-84
2023/09/19 08:39:22;;;;;;;11.00;3.10;;;20.50;99.90;;;;;;5033088;28;20061;-83
2023/09/19 08:41:48;;;;;;;8.80;2.20;;;20.30;99.90;;;;;;5034243;28;20037;-84
2023/09/19 08:44:14;;;;;;;8.57;2.28;;;20.40;99.90;;;;;;5016338;28;20037;-84
2023/09/19 08:46:41;;;;;;;9.15;1.98;;;20.40;99.90;;;;;;5000411;28;20045;-84
2023/09/19 08:49:36;;;;;;;7.32;2.05;;;20.60;99.90;;;;;;5034092;28;20087;-84
2023/09/19 08:52:16;;;;;;;10.02;2.13;;;20.60;99.90;;;;;;5032489;28;20049;-84
2023/09/19 08:54:43;;;;;;;7.28;2.65;;;;;;;;;;5012588;28;20035;-83
2023/09/19 08:57:11;;;;;;;9.82;2.58;;;20.60;99.90;;;;;;5006389;28;20033;-83
2023/09/19 08:59:42;;;;;;;12.65;3.38;;;20.50;99.90;;;;;;4987708;28;20053;-83
2023/09/19 09:02:13;;;;;;;11.98;2.75;;;20.60;99.90;;;;;;4999234;28;20037;-83
2023/09/19 09:04:41;;;;;;;14.38;3.40;;;20.70;99.90;;;;;;5034958;28;20041;-81
2023/09/19 09:07:14;;;;;;;8.60;2.63;;;20.70;99.90;;;;;;5011259;28;20033;-80
2023/09/19 09:09:42;;;;;;;;;;;20.80;99.90;;;;;;4996999;28;20038;-82
2023/09/19 09:12:13;;;;;;;9.63;2.45;;;20.70;99.90;;;;;;4999663;28;19971;-82
2023/09/19 09:14:40;;;;;;;11.77;2.85;;;20.80;99.90;;;;;;5000178;28;20120;-82
2023/09/19 09:17:05;;;;;;;15.30;3.10;;;20.90;99.90;;;;;;5036402;28;20042;-82
2023/09/19 09:19:31;;;;;;;9.27;2.40;;;;;;;;;;5021467;28;20052;-82
2023/09/19 09:22:11;;;;;;;8.57;2.33;;;20.80;99.90;;;;;;5021707;28;20123;-81
2023/09/19 09:24:39;;;;;;;11.38;2.22;;;21.00;99.90;;;;;;5036567;28;20037;-82
2023/09/19 09:27:10;;;;;;;19.00;3.85;;;21.10;99.90;;;;;;5020643;28;20049;-80
2023/09/19 09:29:50;;;;;;;13.40;3.03;;;21.20;99.90;;;;;;5024740;28;20073;-82
2023/09/19 09:32:18;;;;;;;14.02;2.47;;;21.20;99.90;;;;;;5006633;28;20033;-81
2023/09/19 09:34:44;;;;;;;8.32;2.42;;;21.10;99.90;;;;;;5007882;28;20501;-82
2023/09/19 09:37:15;;;;;;;9.02;2.53;;;20.90;99.90;;;;;;5024380;28;20120;-82
2023/09/19 09:39:53;;;;;;;11.05;2.75;;;21.00;99.90;;;;;;5026182;28;20471;-82
2023/09/19 09:42:38;;;;;;;9.95;2.55;;;21.10;99.90;;;;;;5008064;28;20052;-81
2023/09/19 09:45:13;;;;;;;16.33;3.92;;;21.20;99.90;;;;;;5027883;28;20071;-82
2023/09/19 09:47:57;;;;;;;8.77;2.63;;;21.00;99.90;;;;;;5024812;28;20042;-82
2023/09/19 09:51:07;;;;;;;12.90;2.83;;;21.00;99.90;;;;;;5029163;28;20464;-82
2023/09/19 09:53:28;;;;;;;14.02;3.17;;;21.10;99.90;;;;;;5020374;28;20405;-81
2023/09/19 09:56:09;;;;;;;10.38;3.10;;;21.10;99.90;;;;;;5006416;28;20033;-82
2023/09/19 09:58:36;;;;;;;8.82;2.65;;;21.00;99.90;;;;;;5017124;28;20038;-82
2023/09/19 10:01:08;;;;;;;14.48;3.25;;;21.00;99.90;;;;;;5035907;28;20033;-83
2023/09/19 10:03:39;;;;;;;15.80;2.93;;;21.00;99.90;;;;;;5003633;28;20037;-82
2023/09/19 10:06:25;;;;;;;13.85;3.25;;;21.20;99.90;;;;;;5035935;28;20041;-84
2023/09/19 10:09:29;;;;;;;15.40;4.07;;;21.30;99.90;;;;;;4992325;28;20516;-84
2023/09/19 10:12:06;;;;;;;13.40;3.65;;;21.60;99.90;;;;;;5004782;28;20065;-82
2023/09/19 10:14:37;;;;;;;8.85;2.70;;;21.50;99.90;;;;;;5017583;28;20060;-82
2023/09/19 10:17:05;;;;;;;16.05;3.25;;;21.70;99.90;;;;;;5016937;28;20044;-84
2023/09/19 10:19:57;;;;;;;13.95;2.90;;;21.50;99.90;;;;;;4981139;28;20050;-84
2023/09/19 10:22:24;;;;;;;14.68;3.10;;;21.60;99.90;;;;;;5000370;28;20046;-83
2023/09/19 10:24:53;;;;;;;13.05;3.28;;;21.50;99.90;;;;;;4981541;28;20078;-84
2023/09/19 10:27:22;;;;;;;12.77;2.97;;;21.70;99.90;;;;;;5015757;28;20531;-83
2023/09/19 10:29:53;;;;;;;13.55;2.97;;;21.50;99.90;;;;;;5003112;28;20042;-81
2023/09/19 10:32:23;;;;;;;11.43;3.08;;;21.40;99.90;;;;;;5004892;28;20072;-82
2023/09/19 10:34:49;;;;;;;11.80;3.33;;;21.30;99.90;;;;;;4997604;28;20042;-82
2023/09/19 10:37:16;;;;;;;12.50;3.28;;;21.50;99.90;;;;;;4997975;28;20073;-83
2023/09/19 10:39:46;;;;;;;12.07;4.28;;;21.30;99.90;;;;;;5002834;28;20049;-83
2023/09/19 10:42:18;;;;;;;10.15;3.55;;;21.60;99.90;;;;;;5000185;28;20393;-82
2023/09/19 10:44:47;;;;;;;18.63;3.88;;;21.40;99.90;;;;;;5007327;28;20397;-82
2023/09/19 10:47:14;;;;;;;12.88;3.55;;;21.50;99.90;;;;;;5026940;28;20221;-83
2023/09/19 10:49:46;;;;;;;14.65;3.63;;;21.10;99.90;;;;;;4998506;28;20069;-82
2023/09/19 10:52:18;;;;;;;15.02;3.25;;;20.90;99.90;;;;;;4998739;28;20116;-82
2023/09/19 10:54:48;;;;;;;13.40;3.60;;;20.90;99.90;;;;;;5026878;28;20560;-82
2023/09/19 10:57:27;;;;;;;11.27;3.15;;;20.90;99.90;;;;;;5015254;28;20091;-82
2023/09/19 11:00:27;;;;;;;14.52;3.38;;;21.10;99.90;;;;;;5013919;28;20093;-82
2023/09/19 11:03:11;;;;;;;12.98;3.20;;;21.10;99.90;;;;;;4998214;28;20576;-81
2023/09/19 11:05:40;;;;;;;18.67;3.75;;;20.90;99.90;;;;;;4999353;28;20049;-82
2023/09/19 11:08:07;;;;;;;13.55;3.10;;;21.10;99.90;;;;;;5011718;28;20443;-82
2023/09/19 11:10:50;;;;;;;14.27;2.80;;;21.30;99.90;;;;;;4998758;28;20512;-82
2023/09/19 11:13:37;;;;;;;12.40;3.30;;;21.50;99.90;;;;;;5031208;28;20048;-81
2023/09/19 11:16:04;;;;;;;16.52;3.47;;;21.50;99.90;;;;;;5006195;28;20091;-82
2023/09/19 11:18:42;;;;;;;17.67;4.00;;;21.60;99.90;;;;;;4998340;28;20039;-82
2023/09/19 11:21:34;;;;;;;14.95;3.40;;;21.80;99.90;;;;;;5013713;28;20670;-82
2023/09/19 11:24:22;;;;;;;9.57;2.95;;;21.80;99.90;;;;;;5004612;28;20080;-82
2023/09/19 11:26:48;;;;;;;12.77;3.13;;;21.80;99.90;;;;;;4993961;28;20476;-82
2023/09/19 11:29:33;;;;;;;8.95;2.88;;;21.80;99.90;;;;;;5015106;28;20601;-82
2023/09/19 11:32:02;;;;;;;14.60;2.85;;;21.90;99.90;;;;;;4994313;28;20034;-82
2023/09/19 11:34:36;;;;;;;15.02;3.33;;;22.00;99.90;;;;;;5006892;28;20154;-82
2023/09/19 11:37:14;;;;;;;11.95;4.00;;;21.80;99.90;;;;;;4992239;28;20702;-82
2023/09/19 11:40:01;;;;;;;14.38;3.33;;;21.90;99.90;;;;;;4992728;28;20048;-83
2023/09/19 11:42:53;;;;;;;11.25;3.25;;;21.90;99.90;;;;;;5019024;28;20580;-82
2023/09/19 11:45:49;;;;;;;16.67;3.35;;;23.40;99.90;;;;;;4986925;28;20044;-83
2023/09/19 11:48:18;;;;;;;12.45;3.47;;;21.40;99.90;;;;;;5004223;28;20049;-83
2023/09/19 11:50:47;;;;;;;18.02;3.60;;;21.20;99.90;;;;;;4990407;28;20042;-82
2023/09/19 11:53:13;;;;;;;12.00;3.17;;;21.40;99.90;;;;;;5012621;28;20091;-82
2023/09/19 11:55:43;;;;;;;17.52;3.95;;;21.50;99.90;;;;;;5017462;28;20520;-83
2023/09/19 11:58:09;;;;;;;9.70;3.22;;;21.50;99.90;;;;;;4999119;28;20041;-83
2023/09/19 12:00:38;;;;;;;11.23;3.40;;;22.60;99.90;;;;;;5013206;28;20065;-82
2023/09/19 12:03:11;;;;;;;12.05;3.03;;;22.30;99.90;;;;;;4990427;28;20122;-83
2023/09/19 12:05:37;;;;;;;17.90;3.10;;;21.20;99.90;;;;;;5017530;28;20037;-83
2023/09/19 12:08:08;;;;;;;18.30;2.95;;;21.10;99.90;;;;;;5018766;28;20037;-81
2023/09/19 12:10:47;;;;;;;10.50;2.38;;;21.20;99.90;;;;;;5038740;28;20051;-81
2023/09/19 12:13:17;;;;;;;12.98;2.83;;;20.80;99.90;;;;;;5021850;28;20079;-81
2023/09/19 12:15:45;;;;;;;7.88;2.25;;;20.80;99.90;;;;;;5020433;28;20099;-81
2023/09/19 12:18:26;;;;;;;13.05;2.80;;;20.50;99.90;;;;;;5020993;28;20037;-81
2023/09/19 12:20:51;;;;;;;12.45;2.25;;;20.70;99.90;;;;;;5021552;28;20045;-81
2023/09/19 12:23:19;;;;;;;14.00;2.92;;;20.90;99.90;;;;;;5005369;28;20056;-81
2023/09/19 12:25:47;;;;;;;14.82;3.97;;;;;;;;;;5021281;28;20045;-82
2023/09/19 12:28:16;;;;;;;7.13;2.00;;;21.30;99.90;;;;;;5004669;28;20053;-81
2023/09/19 12:30:42;;;;;;;12.65;2.33;;;21.20;99.90;;;;;;5003637;28;20041;-80
2023/09/19 12:33:21;;;;;;;16.23;3.00;;;21.00;99.90;;;;;;5004035;28;20068;-81
2023/09/19 12:35:47;;;;;;;8.88;2.10;;;21.30;99.90;;;;;;5004217;28;20125;-81
2023/09/19 12:38:29;;;;;;;12.25;2.92;;;21.30;99.90;;;;;;5021572;28;20065;-82
2023/09/19 12:41:01;;;;;;;5.70;2.00;;;21.30;99.90;;;;;;5002457;28;20489;-82
2023/09/19 12:43:36;;;;;;;6.97;2.17;;;21.20;99.90;;;;;;5024462;28;20440;-83
2023/09/19 12:46:02;;;;;;;6.55;2.38;;;21.60;99.90;;;;;;5033730;28;20041;-83
2023/09/19 12:48:31;;;;;;;8.20;2.13;;;21.20;99.90;;;;;;5007190;28;20501;-83
2023/09/19 12:51:05;;;;;;;9.65;2.60;;;21.20;99.90;;;;;;5023949;28;20077;-83
2023/09/19 12:53:37;;;;;;;9.82;2.47;;;21.30;99.90;;;;;;5018963;28;20743;-83
2023/09/19 12:56:08;;;;;;;10.32;2.15;;;21.30;99.90;;;;;;5024994;28;20048;-83
2023/09/19 12:58:34;;;;;;;12.15;2.40;;;21.10;99.90;;;;;;5025122;28;20041;-83
2023/09/19 13:01:02;;;;;;;9.23;1.95;;;21.20;99.90;;;;;;5000709;28;20029;-84
2023/09/19 13:03:32;;;;;;;9.65;2.10;;;20.90;99.90;;;;;;5025742;28;20045;-83
2023/09/19 13:06:04;;;;;;;7.43;2.83;;;20.80;99.90;;;;;;5042089;28;20065;-82
2023/09/19 13:08:41;;;;;;;9.52;2.30;;;20.70;99.90;;;;;;5009473;28;20097;-83
2023/09/19 13:11:17;;;;;;;6.85;1.80;;;20.90;99.90;;;;;;5025696;28;20052;-82